sensor_id;sensor_type;location;lat;lon;timestamp;pressure;altitude;pressure_sealevel;temperature;humidity
7333;BME280;3707;43.618;25.342;2024-03-07T00:02:06;100269.25;;;9.69;70.34
7333;BME280;3707;43.618;25.342;2024-03-07T00:04:33;100269.25;;;9.69;70.47
7333;BME280;3707;43.618;25.342;2024-03-07T00:07:01;100262.84;;;9.52;71.12
7333;BME280;3707;43.618;25.342;2024-03-07T00:09:28;100262.91;;;9.56;71.53
7333;BME280;3707;43.618;25.342;2024-03-07T00:11:55;100268.78;;;9.48;72.42
7333;BME280;3707;43.618;25.342;2024-03-07T00:14:22;100242.66;;;9.37;72.63
7333;BME280;3707;43.618;25.342;2024-03-07T00:16:54;100261.13;;;9.52;72.50
7333;BME280;3707;43.618;25.342;2024-03-07T00:19:21;100258.44;;;9.48;73.38
7333;BME280;3707;43.618;25.342;2024-03-07T00:21:51;100252.78;;;9.26;74.21
7333;BME280;3707;43.618;25.342;2024-03-07T00:24:17;100258.06;;;9.32;74.47
7333;BME280;3707;43.618;25.342;2024-03-07T00:26:44;100260.78;;;9.38;74.49
7333;BME280;3707;43.618;25.342;2024-03-07T00:29:11;100255.63;;;9.38;74.24
7333;BME280;3707;43.618;25.342;2024-03-07T00:31:38;100256.53;;;9.40;74.46
7333;BME280;3707;43.618;25.342;2024-03-07T00:34:06;100236.31;;;9.24;74.41
7333;BME280;3707;43.618;25.342;2024-03-07T00:36:33;100256.13;;;9.22;75.36
7333;BME280;3707;43.618;25.342;2024-03-07T00:38:59;100250.88;;;9.19;74.95
7333;BME280;3707;43.618;25.342;2024-03-07T00:41:26;100257.00;;;9.23;75.44
7333;BME280;3707;43.618;25.342;2024-03-07T00:43:53;100248.59;;;9.33;75.29
7333;BME280;3707;43.618;25.342;2024-03-07T00:46:20;100233.75;;;9.24;75.77
7333;BME280;3707;43.618;25.342;2024-03-07T00:48:46;100243.25;;;9.24;76.10
7333;BME280;3707;43.618;25.342;2024-03-07T00:51:14;100218.66;;;9.07;76.55
7333;BME280;3707;43.618;25.342;2024-03-07T00:53:41;100233.53;;;9.15;76.45
7333;BME280;3707;43.618;25.342;2024-03-07T00:56:08;100230.97;;;9.15;76.00
7333;BME280;3707;43.618;25.342;2024-03-07T00:58:35;100227.50;;;9.15;76.23
7333;BME280;3707;43.618;25.342;2024-03-07T01:01:02;100242.19;;;9.17;75.79
7333;BME280;3707;43.618;25.342;2024-03-07T01:03:28;100226.53;;;9.11;75.96
7333;BME280;3707;43.618;25.342;2024-03-07T01:05:55;100222.97;;;9.06;76.29
7333;BME280;3707;43.618;25.342;2024-03-07T01:08:23;100216.19;;;9.11;74.95
7333;BME280;3707;43.618;25.342;2024-03-07T01:10:50;100218.84;;;9.14;74.84
7333;BME280;3707;43.618;25.342;2024-03-07T01:13:18;100223.31;;;9.21;74.89
7333;BME280;3707;43.618;25.342;2024-03-07T01:15:48;100219.91;;;9.22;74.33
7333;BME280;3707;43.618;25.342;2024-03-07T01:18:15;100205.03;;;9.12;74.55
7333;BME280;3707;43.618;25.342;2024-03-07T01:20:42;100226.03;;;9.26;74.87
7333;BME280;3707;43.618;25.342;2024-03-07T01:23:09;100226.03;;;9.26;73.93
7333;BME280;3707;43.618;25.342;2024-03-07T01:25:37;100218.38;;;9.30;74.25
7333;BME280;3707;43.618;25.342;2024-03-07T01:28:05;100219.28;;;9.32;73.61
7333;BME280;3707;43.618;25.342;2024-03-07T01:30:32;100215.81;;;9.32;73.74
7333;BME280;3707;43.618;25.342;2024-03-07T01:32:59;100219.97;;;9.25;74.55
7333;BME280;3707;43.618;25.342;2024-03-07T01:35:26;100219.03;;;9.22;74.77
7333;BME280;3707;43.618;25.342;2024-03-07T01:37:52;100211.03;;;9.11;75.16
7333;BME280;3707;43.618;25.342;2024-03-07T01:40:20;100184.97;;;9.02;74.45
7333;BME280;3707;43.618;25.342;2024-03-07T01:42:49;100223.06;;;9.09;75.18
7333;BME280;3707;43.618;25.342;2024-03-07T01:45:16;100192.63;;;8.98;75.19
7333;BME280;3707;43.618;25.342;2024-03-07T01:47:44;100206.25;;;8.92;75.34
7333;BME280;3707;43.618;25.342;2024-03-07T01:50:11;100212.22;;;8.88;75.91
7333;BME280;3707;43.618;25.342;2024-03-07T01:52:40;100231.59;;;9.07;75.68
7333;BME280;3707;43.618;25.342;2024-03-07T01:55:08;100210.66;;;8.96;75.67
7333;BME280;3707;43.618;25.342;2024-03-07T01:57:35;100213.88;;;8.86;76.09
7333;BME280;3707;43.618;25.342;2024-03-07T02:00:05;100207.56;;;8.75;76.35
7333;BME280;3707;43.618;25.342;2024-03-07T02:02:34;100226.63;;;8.78;77.15
7333;BME280;3707;43.618;25.342;2024-03-07T02:05:01;100225.72;;;8.76;77.04
7333;BME280;3707;43.618;25.342;2024-03-07T02:07:28;100205.41;;;8.57;77.77
7333;BME280;3707;43.618;25.342;2024-03-07T02:10:01;100224.91;;;8.79;77.39
7333;BME280;3707;43.618;25.342;2024-03-07T02:12:29;100227.34;;;8.73;77.61
7333;BME280;3707;43.618;25.342;2024-03-07T02:14:56;100224.09;;;8.80;77.75
7333;BME280;3707;43.618;25.342;2024-03-07T02:17:25;100224.22;;;8.86;77.64
7333;BME280;3707;43.618;25.342;2024-03-07T02:19:52;100202.34;;;8.72;77.94
7333;BME280;3707;43.618;25.342;2024-03-07T02:22:20;100224.53;;;8.98;77.81
7333;BME280;3707;43.618;25.342;2024-03-07T02:24:48;100213.31;;;8.99;77.15
7333;BME280;3707;43.618;25.342;2024-03-07T02:27:14;100214.13;;;8.95;77.54
7333;BME280;3707;43.618;25.342;2024-03-07T02:29:41;100220.88;;;8.90;78.24
7333;BME280;3707;43.618;25.342;2024-03-07T02:32:08;100221.00;;;8.96;78.21
7333;BME280;3707;43.618;25.342;2024-03-07T02:34:35;100185.00;;;8.68;79.24
7333;BME280;3707;43.618;25.342;2024-03-07T02:37:02;100218.91;;;8.80;78.26
7333;BME280;3707;43.618;25.342;2024-03-07T02:39:30;100207.31;;;8.64;78.76
7333;BME280;3707;43.618;25.342;2024-03-07T02:41:57;100215.25;;;8.72;79.42
7333;BME280;3707;43.618;25.342;2024-03-07T02:44:24;100218.66;;;8.71;78.97
7333;BME280;3707;43.618;25.342;2024-03-07T02:46:50;100196.03;;;8.61;78.95
7333;BME280;3707;43.618;25.342;2024-03-07T02:49:17;100212.72;;;8.73;78.51
7333;BME280;3707;43.618;25.342;2024-03-07T02:51:46;100218.66;;;8.69;78.52
7333;BME280;3707;43.618;25.342;2024-03-07T02:54:13;100215.81;;;8.60;79.04
7333;BME280;3707;43.618;25.342;2024-03-07T02:56:41;100198.53;;;8.58;78.75
7333;BME280;3707;43.618;25.342;2024-03-07T02:59:08;100216.78;;;8.64;78.55
7333;BME280;3707;43.618;25.342;2024-03-07T03:01:35;100214.28;;;8.67;78.29
7333;BME280;3707;43.618;25.342;2024-03-07T03:04:02;100195.00;;;8.54;78.50
7333;BME280;3707;43.618;25.342;2024-03-07T03:06:28;100193.22;;;8.52;78.13
7333;BME280;3707;43.618;25.342;2024-03-07T03:08:55;100214.13;;;8.61;78.75
7333;BME280;3707;43.618;25.342;2024-03-07T03:11:22;100211.47;;;8.58;79.06
7333;BME280;3707;43.618;25.342;2024-03-07T03:13:52;100185.47;;;8.52;79.31
7333;BME280;3707;43.618;25.342;2024-03-07T03:16:19;100208.06;;;8.59;79.54
7333;BME280;3707;43.618;25.342;2024-03-07T03:18:47;100205.59;;;8.63;79.30
7333;BME280;3707;43.618;25.342;2024-03-07T03:21:14;100206.44;;;8.64;79.00
7333;BME280;3707;43.618;25.342;2024-03-07T03:23:42;100207.50;;;8.70;78.71
7333;BME280;3707;43.618;25.342;2024-03-07T03:26:09;100200.56;;;8.69;78.45
7333;BME280;3707;43.618;25.342;2024-03-07T03:28:36;100207.50;;;8.72;78.02
7333;BME280;3707;43.618;25.342;2024-03-07T03:31:08;100169.78;;;8.44;77.98
7333;BME280;3707;43.618;25.342;2024-03-07T03:33:35;100211.88;;;8.74;77.83
7333;BME280;3707;43.618;25.342;2024-03-07T03:36:02;100215.31;;;8.75;81.49
7333;BME280;3707;43.618;25.342;2024-03-07T03:38:29;100208.66;;;8.49;84.47
7333;BME280;3707;43.618;25.342;2024-03-07T03:40:56;100210.03;;;8.34;86.76
7333;BME280;3707;43.618;25.342;2024-03-07T03:43:23;100211.50;;;8.26;87.47
7333;BME280;3707;43.618;25.342;2024-03-07T03:45:50;100191.91;;;8.02;89.06
7333;BME280;3707;43.618;25.342;2024-03-07T03:48:18;100181.59;;;8.03;89.77
7333;BME280;3707;43.618;25.342;2024-03-07T03:50:45;100205.00;;;8.09;89.54
7333;BME280;3707;43.618;25.342;2024-03-07T03:53:12;100188.06;;;7.87;90.87
7333;BME280;3707;43.618;25.342;2024-03-07T03:55:39;100202.69;;;7.87;91.86
7333;BME280;3707;43.618;25.342;2024-03-07T03:58:06;100210.44;;;7.88;91.93
7333;BME280;3707;43.618;25.342;2024-03-07T04:00:32;100204.66;;;7.97;100.00
7333;BME280;3707;43.618;25.342;2024-03-07T04:02:59;100182.19;;;7.93;94.99
7333;BME280;3707;43.618;25.342;2024-03-07T04:05:27;100212.03;;;8.15;92.86
7333;BME280;3707;43.618;25.342;2024-03-07T04:07:54;100215.66;;;7.90;93.51
7333;BME280;3707;43.618;25.342;2024-03-07T04:10:22;100211.97;;;7.82;93.03
7333;BME280;3707;43.618;25.342;2024-03-07T04:12:48;100182.22;;;7.63;94.24
7333;BME280;3707;43.618;25.342;2024-03-07T04:15:15;100217.72;;;7.72;95.74
7333;BME280;3707;43.618;25.342;2024-03-07T04:17:42;100192.13;;;7.49;96.77
7333;BME280;3707;43.618;25.342;2024-03-07T04:20:10;100206.13;;;7.58;97.21
7333;BME280;3707;43.618;25.342;2024-03-07T04:22:39;100193.00;;;7.48;97.92
7333;BME280;3707;43.618;25.342;2024-03-07T04:25:07;100213.72;;;7.52;99.14
7333;BME280;3707;43.618;25.342;2024-03-07T04:27:35;100219.28;;;7.37;100.00
7333;BME280;3707;43.618;25.342;2024-03-07T04:30:06;100179.88;;;7.13;100.00
7333;BME280;3707;43.618;25.342;2024-03-07T04:32:35;100208.75;;;7.29;100.00
7333;BME280;3707;43.618;25.342;2024-03-07T04:35:02;100216.66;;;7.35;100.00
7333;BME280;3707;43.618;25.342;2024-03-07T04:37:33;100215.28;;;7.18;100.00
7333;BME280;3707;43.618;25.342;2024-03-07T04:40:04;100214.44;;;7.19;100.00
7333;BME280;3707;43.618;25.342;2024-03-07T04:42:40;100212.69;;;7.18;100.00
7333;BME280;3707;43.618;25.342;2024-03-07T04:45:08;100228.72;;;7.08;100.00
7333;BME280;3707;43.618;25.342;2024-03-07T04:47:38;100234.41;;;6.98;100.00
7333;BME280;3707;43.618;25.342;2024-03-07T04:50:06;100223.28;;;6.99;100.00
7333;BME280;3707;43.618;25.342;2024-03-07T04:52:33;100209.91;;;6.84;100.00
7333;BME280;3707;43.618;25.342;2024-03-07T04:55:00;100225.56;;;6.90;100.00
7333;BME280;3707;43.618;25.342;2024-03-07T04:57:28;100227.72;;;6.78;100.00
7333;BME280;3707;43.618;25.342;2024-03-07T04:59:54;100230.63;;;6.87;100.00
7333;BME280;3707;43.618;25.342;2024-03-07T05:02:22;100213.47;;;6.87;100.00
7333;BME280;3707;43.618;25.342;2024-03-07T05:04:49;100231.78;;;6.96;100.00
7333;BME280;3707;43.618;25.342;2024-03-07T05:07:17;100229.66;;;6.85;100.00
7333;BME280;3707;43.618;25.342;2024-03-07T05:09:44;100223.59;;;6.83;100.00
7333;BME280;3707;43.618;25.342;2024-03-07T05:12:11;100232.47;;;6.91;100.00
7333;BME280;3707;43.618;25.342;2024-03-07T05:14:39;100226.38;;;6.89;100.00
7333;BME280;3707;43.618;25.342;2024-03-07T05:17:06;100229.09;;;6.93;100.00
7333;BME280;3707;43.618;25.342;2024-03-07T05:19:34;100231.03;;;6.99;100.00
7333;BME280;3707;43.618;25.342;2024-03-07T05:22:02;100234.50;;;7.01;100.00
7333;BME280;3707;43.618;25.342;2024-03-07T05:24:30;100208.91;;;7.07;100.00
7333;BME280;3707;43.618;25.342;2024-03-07T05:26:58;100233.72;;;7.30;100.00
7333;BME280;3707;43.618;25.342;2024-03-07T05:29:25;100210.09;;;7.17;100.00
7333;BME280;3707;43.618;25.342;2024-03-07T05:31:53;100208.47;;;7.20;100.00
7333;BME280;3707;43.618;25.342;2024-03-07T05:34:20;100231.84;;;7.55;100.00
7333;BME280;3707;43.618;25.342;2024-03-07T05:36:48;100220.34;;;7.43;100.00
7333;BME280;3707;43.618;25.342;2024-03-07T05:39:16;100231.53;;;7.44;100.00
7333;BME280;3707;43.618;25.342;2024-03-07T05:41:44;100234.84;;;7.40;100.00
7333;BME280;3707;43.618;25.342;2024-03-07T05:44:11;100238.41;;;7.43;100.00
7333;BME280;3707;43.618;25.342;2024-03-07T05:46:38;100246.53;;;7.57;100.00
7333;BME280;3707;43.618;25.342;2024-03-07T05:49:12;100235.94;;;7.76;99.55
7333;BME280;3707;43.618;25.342;2024-03-07T05:51:39;100237.56;;;8.04;100.00
7333;BME280;3707;43.618;25.342;2024-03-07T05:54:10;100246.41;;;7.82;100.00
7333;BME280;3707;43.618;25.342;2024-03-07T05:56:38;100248.09;;;7.80;100.00
7333;BME280;3707;43.618;25.342;2024-03-07T05:59:05;100231.13;;;7.59;100.00
7333;BME280;3707;43.618;25.342;2024-03-07T06:01:32;100241.75;;;7.69;100.00
7333;BME280;3707;43.618;25.342;2024-03-07T06:04:00;100254.88;;;7.77;99.74
7333;BME280;3707;43.618;25.342;2024-03-07T06:06:28;100226.22;;;7.68;100.00
7333;BME280;3707;43.618;25.342;2024-03-07T06:08:57;100233.03;;;7.66;100.00
7333;BME280;3707;43.618;25.342;2024-03-07T06:11:24;100229.34;;;7.58;100.00
7333;BME280;3707;43.618;25.342;2024-03-07T06:13:51;100221.03;;;7.68;99.94
7333;BME280;3707;43.618;25.342;2024-03-07T06:16:18;100259.28;;;7.81;100.00
7333;BME280;3707;43.618;25.342;2024-03-07T06:18:45;100254.44;;;7.91;100.00
7333;BME280;3707;43.618;25.342;2024-03-07T06:21:12;100259.09;;;8.05;100.00
7333;BME280;3707;43.618;25.342;2024-03-07T06:23:41;100263.94;;;8.24;98.54
7333;BME280;3707;43.618;25.342;2024-03-07T06:26:13;100262.13;;;8.21;99.07
7333;BME280;3707;43.618;25.342;2024-03-07T06:28:42;100265.91;;;8.32;99.04
7333;BME280;3707;43.618;25.342;2024-03-07T06:31:10;100252.59;;;8.49;96.58
7333;BME280;3707;43.618;25.342;2024-03-07T06:33:37;100259.38;;;8.45;96.69
7333;BME280;3707;43.618;25.342;2024-03-07T06:36:04;100269.19;;;8.58;96.27
7333;BME280;3707;43.618;25.342;2024-03-07T06:38:31;100268.56;;;8.67;95.69
7333;BME280;3707;43.618;25.342;2024-03-07T06:40:59;100273.50;;;8.58;94.01
7333;BME280;3707;43.618;25.342;2024-03-07T06:43:26;100266.84;;;8.67;91.13
7333;BME280;3707;43.618;25.342;2024-03-07T06:45:54;100270.38;;;8.71;89.41
7333;BME280;3707;43.618;25.342;2024-03-07T06:48:21;100265.97;;;8.67;88.99
7333;BME280;3707;43.618;25.342;2024-03-07T06:50:48;100266.75;;;8.63;88.13
7333;BME280;3707;43.618;25.342;2024-03-07T06:53:16;100268.16;;;8.86;87.02
7333;BME280;3707;43.618;25.342;2024-03-07T06:55:43;100265.72;;;8.90;87.11
7333;BME280;3707;43.618;25.342;2024-03-07T06:58:11;100267.75;;;9.04;85.78
7333;BME280;3707;43.618;25.342;2024-03-07T07:00:38;100277.97;;;8.99;84.88
7333;BME280;3707;43.618;25.342;2024-03-07T07:03:05;100280.72;;;9.05;84.44
7333;BME280;3707;43.618;25.342;2024-03-07T07:05:32;100288.56;;;9.08;84.26
7333;BME280;3707;43.618;25.342;2024-03-07T07:07:59;100291.03;;;9.04;83.77
7333;BME280;3707;43.618;25.342;2024-03-07T07:10:26;100265.47;;;9.16;85.08
7333;BME280;3707;43.618;25.342;2024-03-07T07:12:53;100291.97;;;9.07;82.72
7333;BME280;3707;43.618;25.342;2024-03-07T07:15:21;100288.25;;;9.32;82.81
7333;BME280;3707;43.618;25.342;2024-03-07T07:17:49;100272.66;;;9.27;82.02
7333;BME280;3707;43.618;25.342;2024-03-07T07:20:16;100264.44;;;9.09;82.69
7333;BME280;3707;43.618;25.342;2024-03-07T07:22:44;100274.13;;;9.18;80.87
7333;BME280;3707;43.618;25.342;2024-03-07T07:25:11;100290.31;;;9.46;80.59
7333;BME280;3707;43.618;25.342;2024-03-07T07:27:44;100289.72;;;9.58;79.91
7333;BME280;3707;43.618;25.342;2024-03-07T07:30:13;100297.19;;;9.46;81.06
7333;BME280;3707;43.618;25.342;2024-03-07T07:32:42;100296.50;;;9.53;80.59
7333;BME280;3707;43.618;25.342;2024-03-07T07:35:09;100279.09;;;9.46;81.57
7333;BME280;3707;43.618;25.342;2024-03-07T07:37:38;100293.03;;;9.53;79.65
7333;BME280;3707;43.618;25.342;2024-03-07T07:40:06;100293.31;;;9.65;79.97
7333;BME280;3707;43.618;25.342;2024-03-07T07:42:35;100298.31;;;9.57;79.22
7333;BME280;3707;43.618;25.342;2024-03-07T07:45:06;100272.88;;;9.77;78.63
7333;BME280;3707;43.618;25.342;2024-03-07T07:47:33;100300.66;;;9.84;78.43
7333;BME280;3707;43.618;25.342;2024-03-07T07:50:06;100275.25;;;9.68;78.88
7333;BME280;3707;43.618;25.342;2024-03-07T07:52:40;100301.75;;;9.95;79.15
7333;BME280;3707;43.618;25.342;2024-03-07T07:55:07;100228.53;;;9.62;78.77
7333;BME280;3707;43.618;25.342;2024-03-07T07:57:40;100279.16;;;9.88;78.77
7333;BME280;3707;43.618;25.342;2024-03-07T08:00:08;100291.13;;;9.83;78.97
7333;BME280;3707;43.618;25.342;2024-03-07T08:02:36;100266.94;;;9.81;79.74
7333;BME280;3707;43.618;25.342;2024-03-07T08:05:05;100262.81;;;9.92;78.89
7333;BME280;3707;43.618;25.342;2024-03-07T08:07:32;100301.16;;;10.08;78.63
7333;BME280;3707;43.618;25.342;2024-03-07T08:09:58;100301.09;;;10.07;78.24
7333;BME280;3707;43.618;25.342;2024-03-07T08:12:25;100302.47;;;9.88;79.61
7333;BME280;3707;43.618;25.342;2024-03-07T08:14:52;100280.81;;;9.86;79.37
7333;BME280;3707;43.618;25.342;2024-03-07T08:17:20;100303.06;;;10.15;79.00
7333;BME280;3707;43.618;25.342;2024-03-07T08:19:48;100304.81;;;10.16;79.12
7333;BME280;3707;43.618;25.342;2024-03-07T08:22:18;100310.69;;;10.09;79.88
7333;BME280;3707;43.618;25.342;2024-03-07T08:24:45;100303.53;;;9.98;79.40
7333;BME280;3707;43.618;25.342;2024-03-07T08:27:11;100311.03;;;9.85;80.88
7333;BME280;3707;43.618;25.342;2024-03-07T08:29:38;100299.28;;;10.01;80.24
7333;BME280;3707;43.618;25.342;2024-03-07T08:32:06;100307.78;;;9.94;81.63
7333;BME280;3707;43.618;25.342;2024-03-07T08:34:33;100313.84;;;9.96;82.17
7333;BME280;3707;43.618;25.342;2024-03-07T08:37:00;100310.25;;;9.89;81.56
7333;BME280;3707;43.618;25.342;2024-03-07T08:39:30;100294.00;;;9.95;81.58
7333;BME280;3707;43.618;25.342;2024-03-07T08:41:57;100304.00;;;10.19;80.65
7333;BME280;3707;43.618;25.342;2024-03-07T08:44:24;100310.28;;;10.31;80.48
7333;BME280;3707;43.618;25.342;2024-03-07T08:46:51;100317.41;;;10.41;79.39
7333;BME280;3707;43.618;25.342;2024-03-07T08:49:18;100314.16;;;10.53;81.40
7333;BME280;3707;43.618;25.342;2024-03-07T08:51:45;100293.28;;;10.45;78.43
7333;BME280;3707;43.618;25.342;2024-03-07T08:54:12;100325.50;;;10.60;77.60
7333;BME280;3707;43.618;25.342;2024-03-07T08:56:41;100316.06;;;10.62;76.58
7333;BME280;3707;43.618;25.342;2024-03-07T08:59:08;100322.66;;;10.44;78.23
7333;BME280;3707;43.618;25.342;2024-03-07T09:01:41;100325.09;;;10.38;79.45
7333;BME280;3707;43.618;25.342;2024-03-07T09:04:08;100323.81;;;10.60;80.89
7333;BME280;3707;43.618;25.342;2024-03-07T09:06:37;100323.00;;;10.63;82.27
7333;BME280;3707;43.618;25.342;2024-03-07T09:09:03;100321.69;;;10.86;85.47
7333;BME280;3707;43.618;25.342;2024-03-07T09:11:34;100299.44;;;11.00;83.31
7333;BME280;3707;43.618;25.342;2024-03-07T09:14:03;100308.31;;;11.14;85.88
7333;BME280;3707;43.618;25.342;2024-03-07T09:16:34;100326.56;;;11.19;84.81
7333;BME280;3707;43.618;25.342;2024-03-07T09:19:01;100335.81;;;11.03;87.13
7333;BME280;3707;43.618;25.342;2024-03-07T09:21:28;100332.66;;;11.19;87.91
7333;BME280;3707;43.618;25.342;2024-03-07T09:23:55;100325.44;;;11.03;88.90
7333;BME280;3707;43.618;25.342;2024-03-07T09:26:22;100325.38;;;10.99;90.90
7333;BME280;3707;43.618;25.342;2024-03-07T09:28:49;100329.03;;;11.11;90.50
7333;BME280;3707;43.618;25.342;2024-03-07T09:31:17;100330.84;;;11.15;91.03
7333;BME280;3707;43.618;25.342;2024-03-07T09:33:44;100331.84;;;11.23;93.02
7333;BME280;3707;43.618;25.342;2024-03-07T09:36:11;100309.72;;;10.94;93.89
7333;BME280;3707;43.618;25.342;2024-03-07T09:38:38;100316.25;;;10.74;97.25
7333;BME280;3707;43.618;25.342;2024-03-07T09:41:04;100333.88;;;10.90;98.69
7333;BME280;3707;43.618;25.342;2024-03-07T09:43:33;100326.59;;;10.71;100.00
7333;BME280;3707;43.618;25.342;2024-03-07T09:46:03;100321.81;;;10.93;100.00
7333;BME280;3707;43.618;25.342;2024-03-07T09:48:32;100340.16;;;11.04;100.00
7333;BME280;3707;43.618;25.342;2024-03-07T09:50:59;100343.41;;;10.92;100.00
7333;BME280;3707;43.618;25.342;2024-03-07T09:53:28;100339.88;;;10.89;100.00
7333;BME280;3707;43.618;25.342;2024-03-07T09:55:56;100345.44;;;11.09;100.00
7333;BME280;3707;43.618;25.342;2024-03-07T09:58:25;100339.66;;;10.75;100.00
7333;BME280;3707;43.618;25.342;2024-03-07T10:00:53;100330.38;;;10.89;100.00
7333;BME280;3707;43.618;25.342;2024-03-07T10:03:21;100333.91;;;10.93;100.00
7333;BME280;3707;43.618;25.342;2024-03-07T10:05:50;100331.47;;;11.01;100.00
7333;BME280;3707;43.618;25.342;2024-03-07T10:08:18;100334.75;;;10.90;100.00
7333;BME280;3707;43.618;25.342;2024-03-07T10:10:45;100329.13;;;10.66;100.00
7333;BME280;3707;43.618;25.342;2024-03-07T10:13:12;100315.88;;;10.53;100.00
7333;BME280;3707;43.618;25.342;2024-03-07T10:15:39;100318.91;;;10.30;100.00
7333;BME280;3707;43.618;25.342;2024-03-07T10:18:08;100313.19;;;10.47;100.00
7333;BME280;3707;43.618;25.342;2024-03-07T10:20:36;100298.94;;;10.25;100.00
7333;BME280;3707;43.618;25.342;2024-03-07T10:23:06;100317.28;;;10.35;100.00
7333;BME280;3707;43.618;25.342;2024-03-07T10:25:33;100302.34;;;10.22;100.00
7333;BME280;3707;43.618;25.342;2024-03-07T10:28:01;100315.03;;;10.12;100.00
7333;BME280;3707;43.618;25.342;2024-03-07T10:30:29;100301.09;;;10.05;100.00
7333;BME280;3707;43.618;25.342;2024-03-07T10:32:57;100313.91;;;9.99;100.00
7333;BME280;3707;43.618;25.342;2024-03-07T10:35:24;100315.44;;;9.89;100.00
7333;BME280;3707;43.618;25.342;2024-03-07T10:37:52;100306.72;;;9.84;100.00
7333;BME280;3707;43.618;25.342;2024-03-07T10:40:20;100314.78;;;10.00;100.00
7333;BME280;3707;43.618;25.342;2024-03-07T10:42:48;100308.75;;;10.01;100.00
7333;BME280;3707;43.618;25.342;2024-03-07T10:45:20;100306.88;;;9.93;100.00
7333;BME280;3707;43.618;25.342;2024-03-07T10:47:53;100307.56;;;9.85;100.00
7333;BME280;3707;43.618;25.342;2024-03-07T10:50:30;100307.28;;;10.12;100.00
7333;BME280;3707;43.618;25.342;2024-03-07T10:53:07;100301.56;;;10.26;100.00
7333;BME280;3707;43.618;25.342;2024-03-07T10:55:53;100297.31;;;10.31;100.00
7333;BME280;3707;43.618;25.342;2024-03-07T10:58:30;100295.78;;;9.99;100.00
7333;BME280;3707;43.618;25.342;2024-03-07T11:01:02;100297.69;;;10.08;100.00
7333;BME280;3707;43.618;25.342;2024-03-07T11:03:31;100291.97;;;9.82;100.00
7333;BME280;3707;43.618;25.342;2024-03-07T11:05:59;100286.44;;;9.67;100.00
7333;BME280;3707;43.618;25.342;2024-03-07T11:08:31;100282.31;;;9.73;100.00
7333;BME280;3707;43.618;25.342;2024-03-07T11:10:59;100292.25;;;9.95;100.00
7333;BME280;3707;43.618;25.342;2024-03-07T11:13:26;100285.81;;;9.77;100.00
7333;BME280;3707;43.618;25.342;2024-03-07T11:15:55;100288.03;;;10.01;100.00
7333;BME280;3707;43.618;25.342;2024-03-07T11:18:23;100293.84;;;9.89;100.00
7333;BME280;3707;43.618;25.342;2024-03-07T11:20:50;100289.38;;;10.22;100.00
7333;BME280;3707;43.618;25.342;2024-03-07T11:23:35;100283.00;;;10.49;100.00
7333;BME280;3707;43.618;25.342;2024-03-07T11:26:08;100299.44;;;10.51;100.00
7333;BME280;3707;43.618;25.342;2024-03-07T11:28:36;100289.09;;;10.52;100.00
7333;BME280;3707;43.618;25.342;2024-03-07T11:31:07;100277.66;;;10.42;100.00
7333;BME280;3707;43.618;25.342;2024-03-07T11:33:37;100262.19;;;10.04;100.00
7333;BME280;3707;43.618;25.342;2024-03-07T11:36:07;100295.69;;;10.36;100.00
7333;BME280;3707;43.618;25.342;2024-03-07T11:38:34;100298.47;;;10.45;100.00
7333;BME280;3707;43.618;25.342;2024-03-07T11:41:03;100288.28;;;10.55;100.00
7333;BME280;3707;43.618;25.342;2024-03-07T11:43:32;100288.81;;;10.38;100.00
7333;BME280;3707;43.618;25.342;2024-03-07T11:45:59;100270.97;;;10.10;100.00
7333;BME280;3707;43.618;25.342;2024-03-07T11:48:26;100288.75;;;10.35;100.00
7333;BME280;3707;43.618;25.342;2024-03-07T11:50:53;100272.56;;;10.04;100.00
7333;BME280;3707;43.618;25.342;2024-03-07T11:53:20;100283.47;;;10.31;100.00
7333;BME280;3707;43.618;25.342;2024-03-07T11:55:48;100278.25;;;10.26;100.00
7333;BME280;3707;43.618;25.342;2024-03-07T11:58:17;100286.28;;;10.40;100.00
7333;BME280;3707;43.618;25.342;2024-03-07T12:00:49;100289.66;;;10.36;100.00
7333;BME280;3707;43.618;25.342;2024-03-07T12:03:17;100288.34;;;10.14;100.00
7333;BME280;3707;43.618;25.342;2024-03-07T12:05:47;100273.38;;;10.01;100.00
7333;BME280;3707;43.618;25.342;2024-03-07T12:08:17;100283.97;;;10.12;100.00
7333;BME280;3707;43.618;25.342;2024-03-07T12:10:44;100276.38;;;10.21;100.00
7333;BME280;3707;43.618;25.342;2024-03-07T12:13:12;100273.72;;;10.16;100.00
7333;BME280;3707;43.618;25.342;2024-03-07T12:15:41;100238.44;;;9.81;100.00
7333;BME280;3707;43.618;25.342;2024-03-07T12:18:10;100278.31;;;10.31;100.00
7333;BME280;3707;43.618;25.342;2024-03-07T12:20:41;100276.00;;;10.44;100.00
7333;BME280;3707;43.618;25.342;2024-03-07T12:23:12;100274.84;;;10.78;100.00
7333;BME280;3707;43.618;25.342;2024-03-07T12:25:39;100281.19;;;10.44;100.00
7333;BME280;3707;43.618;25.342;2024-03-07T12:28:08;100260.31;;;10.38;100.00
7333;BME280;3707;43.618;25.342;2024-03-07T12:30:48;100283.44;;;10.28;100.00
7333;BME280;3707;43.618;25.342;2024-03-07T12:33:20;100262.53;;;10.19;100.00
7333;BME280;3707;43.618;25.342;2024-03-07T12:35:49;100240.88;;;10.15;100.00
7333;BME280;3707;43.618;25.342;2024-03-07T12:38:18;100279.44;;;10.03;100.00
7333;BME280;3707;43.618;25.342;2024-03-07T12:40:45;100272.63;;;10.07;100.00
7333;BME280;3707;43.618;25.342;2024-03-07T12:43:14;100279.94;;;9.84;100.00
7333;BME280;3707;43.618;25.342;2024-03-07T12:45:44;100265.38;;;9.90;100.00
7333;BME280;3707;43.618;25.342;2024-03-07T12:48:11;100273.88;;;9.85;100.00
7333;BME280;3707;43.618;25.342;2024-03-07T12:50:41;100278.19;;;9.83;100.00
7333;BME280;3707;43.618;25.342;2024-03-07T12:53:08;100264.78;;;9.62;100.00
7333;BME280;3707;43.618;25.342;2024-03-07T12:55:38;100246.84;;;9.71;100.00
7333;BME280;3707;43.618;25.342;2024-03-07T12:58:07;100268.31;;;10.07;100.00
7333;BME280;3707;43.618;25.342;2024-03-07T13:00:35;100267.88;;;9.84;100.00
7333;BME280;3707;43.618;25.342;2024-03-07T13:03:02;100268.09;;;9.95;100.00
7333;BME280;3707;43.618;25.342;2024-03-07T13:05:28;100272.41;;;9.96;100.00
7333;BME280;3707;43.618;25.342;2024-03-07T13:07:57;100279.94;;;9.84;100.00